Weer

Current Metar

EHAM: EHAM 211925Z 05004KT CAVOK 16/13 Q1022 NOSIG
EHRD: EHRD 211925Z AUTO 01004KT 330V040 9999 OVC046 17/14 Q1022 NOSIG
EHGG: EHGG 211925Z AUTO 06002KT 9999 NCD 12/11 Q1023 NOSIG
EHEH: EHEH 211925Z AUTO 19003KT 9999 BKN190 15/12 Q1022 BLU 20004KT CAVOK
EHBK: EHBK 211925Z AUTO 30003KT 270V360 9999 NSC 17/12 Q1022 NOSIG

Search METAR


Wind Charts

+ 0600h
FL100 FL180 FL240 FL300 FL340

+ 1200h
FL100 FL180 FL240 FL300 FL340

+ 1800h
FL100 FL180 FL240 FL300 FL340

+ 2400h
FL100 FL180 FL240 FL300 FL340

Europe & Africa charts only, updated daily.

 

Weather Services

MET Office